createdAt,value
2023-05-24T00:01:57.604Z,3.17
2023-05-24T00:04:30.586Z,3.15
2023-05-24T00:06:58.279Z,2.72
2023-05-24T00:09:25.243Z,2.75
2023-05-24T00:11:51.999Z,2.67
2023-05-24T00:14:18.771Z,5.38
2023-05-24T00:16:46.647Z,2.47
2023-05-24T00:19:18.471Z,2.63
2023-05-24T00:21:46.120Z,2.38
2023-05-24T00:24:13.134Z,2.90
2023-05-24T00:26:40.232Z,2.58
2023-05-24T00:29:07.020Z,2.97
2023-05-24T00:31:34.286Z,3.13
2023-05-24T00:34:01.040Z,3.20
2023-05-24T00:36:27.825Z,3.40
2023-05-24T00:38:54.615Z,2.90
2023-05-24T00:41:21.403Z,2.40
2023-05-24T00:43:48.138Z,2.75
2023-05-24T00:46:18.171Z,3.22
2023-05-24T00:48:46.087Z,2.80
2023-05-24T00:51:14.871Z,4.40
2023-05-24T00:53:49.043Z,3.28
2023-05-24T00:56:17.602Z,2.42
2023-05-24T00:58:45.215Z,3.03
2023-05-24T01:01:12.903Z,3.20
2023-05-24T01:03:40.305Z,2.67
2023-05-24T01:06:08.874Z,3.50
2023-05-24T01:08:58.927Z,2.53
2023-05-24T01:11:53.592Z,2.53
2023-05-24T01:14:36.515Z,2.60
2023-05-24T01:17:34.762Z,3.28
2023-05-24T01:20:09.177Z,3.08
2023-05-24T01:22:52.408Z,2.67
2023-05-24T01:25:25.077Z,3.15
2023-05-24T01:27:52.502Z,3.67
2023-05-24T01:30:20.101Z,3.05
2023-05-24T01:32:46.995Z,3.00
2023-05-24T01:35:13.758Z,4.95
2023-05-24T01:37:40.511Z,3.53
2023-05-24T01:40:08.532Z,4.38
2023-05-24T01:42:45.884Z,3.60
2023-05-24T01:45:26.003Z,2.90
2023-05-24T01:48:23.119Z,3.35
2023-05-24T01:50:59.105Z,3.03
2023-05-24T01:53:32.829Z,4.30
2023-05-24T01:56:02.494Z,3.33
2023-05-24T01:58:31.316Z,3.10
2023-05-24T02:00:58.378Z,3.22
2023-05-24T02:03:25.338Z,3.03
2023-05-24T02:05:52.117Z,3.75
2023-05-24T02:08:18.858Z,2.85
2023-05-24T02:10:45.726Z,2.67
2023-05-24T02:13:12.469Z,3.05
2023-05-24T02:15:41.934Z,3.70
2023-05-24T02:18:08.850Z,3.13
2023-05-24T02:20:37.290Z,3.35
2023-05-24T02:23:04.716Z,3.97
2023-05-24T02:25:33.117Z,4.05
2023-05-24T02:28:00.609Z,3.78
2023-05-24T02:30:27.602Z,3.20
2023-05-24T02:32:54.391Z,3.25
2023-05-24T02:35:21.312Z,4.80
2023-05-24T02:37:48.138Z,4.45
2023-05-24T02:40:15.208Z,4.57
2023-05-24T02:42:42.022Z,3.28
2023-05-24T02:45:09.147Z,3.28
2023-05-24T02:47:35.954Z,3.05
2023-05-24T02:50:02.839Z,3.33
2023-05-24T02:52:29.610Z,2.83
2023-05-24T02:54:56.383Z,3.55
2023-05-24T02:57:23.223Z,3.53
2023-05-24T02:59:50.010Z,3.75
2023-05-24T03:02:18.140Z,3.45
2023-05-24T03:04:44.855Z,4.15
2023-05-24T03:07:11.591Z,3.45
2023-05-24T03:09:38.364Z,3.13
2023-05-24T03:12:05.917Z,3.13
2023-05-24T03:14:32.647Z,3.65
2023-05-24T03:16:59.364Z,3.35
2023-05-24T03:19:26.131Z,3.63
2023-05-24T03:21:52.865Z,4.72
2023-05-24T03:24:20.777Z,3.50
2023-05-24T03:26:47.858Z,3.42
2023-05-24T03:29:14.631Z,3.53
2023-05-24T03:31:41.430Z,3.03
2023-05-24T03:34:08.164Z,3.05
2023-05-24T03:36:34.969Z,3.70
2023-05-24T03:39:03.939Z,4.15
2023-05-24T03:41:31.351Z,3.33
2023-05-24T03:43:58.095Z,3.45
2023-05-24T03:46:24.936Z,3.70
2023-05-24T03:48:51.711Z,3.95
2023-05-24T03:51:18.495Z,3.40
2023-05-24T03:53:45.283Z,3.63
2023-05-24T03:56:12.053Z,3.53
2023-05-24T03:58:38.804Z,4.35
2023-05-24T04:01:05.573Z,3.15
2023-05-24T04:03:34.272Z,3.97
2023-05-24T04:06:01.196Z,4.80
2023-05-24T04:08:27.931Z,3.30
2023-05-24T04:10:54.655Z,3.90
2023-05-24T04:13:21.356Z,3.45
2023-05-24T04:15:48.218Z,3.50
2023-05-24T04:18:15.033Z,3.55
2023-05-24T04:20:42.089Z,3.47
2023-05-24T04:23:09.043Z,3.75
2023-05-24T04:25:35.829Z,3.50
2023-05-24T04:28:06.262Z,4.13
2023-05-24T04:30:33.052Z,3.72
2023-05-24T04:32:59.933Z,4.22
2023-05-24T04:35:26.738Z,4.88
2023-05-24T04:37:53.613Z,4.43
2023-05-24T04:40:23.288Z,3.80
2023-05-24T04:42:50.850Z,4.68
2023-05-24T04:45:17.692Z,3.92
2023-05-24T04:47:44.542Z,3.47
2023-05-24T04:50:11.312Z,4.35
2023-05-24T04:52:38.113Z,4.70
2023-05-24T04:55:05.205Z,3.80
2023-05-24T04:57:31.933Z,3.65
2023-05-24T04:59:59.003Z,4.50
2023-05-24T05:02:27.221Z,3.90
2023-05-24T05:04:54.020Z,3.20
2023-05-24T05:07:20.733Z,4.00
2023-05-24T05:09:47.768Z,3.58
2023-05-24T05:12:14.519Z,4.03
2023-05-24T05:14:41.333Z,5.05
2023-05-24T05:17:08.187Z,4.47
2023-05-24T05:19:35.834Z,4.00
2023-05-24T05:22:02.672Z,4.57
2023-05-24T05:24:29.506Z,5.65
2023-05-24T05:26:56.467Z,4.78
2023-05-24T05:29:24.541Z,6.00
2023-05-24T05:31:51.631Z,3.90
2023-05-24T05:34:19.616Z,4.10
2023-05-24T05:36:46.430Z,3.67
2023-05-24T05:39:13.233Z,4.35
2023-05-24T05:41:40.619Z,4.95
2023-05-24T05:44:07.312Z,5.25
2023-05-24T05:46:34.061Z,4.00
2023-05-24T05:49:00.920Z,5.13
2023-05-24T05:51:27.702Z,3.72
2023-05-24T05:53:54.505Z,3.50
2023-05-24T05:56:21.339Z,3.63
2023-05-24T05:58:48.100Z,3.72
2023-05-24T06:01:16.095Z,3.58
2023-05-24T06:03:43.015Z,3.67
2023-05-24T06:06:09.935Z,3.78
2023-05-24T06:08:36.659Z,3.70
2023-05-24T06:11:03.554Z,3.17
2023-05-24T06:13:31.419Z,3.03
2023-05-24T06:15:59.036Z,4.18
2023-05-24T06:18:27.672Z,4.63
2023-05-24T06:20:54.496Z,3.92
2023-05-24T06:23:21.747Z,3.92
2023-05-24T06:25:48.617Z,4.38
2023-05-24T06:28:15.459Z,3.63
2023-05-24T06:30:42.551Z,2.88
2023-05-24T06:33:09.508Z,3.17
2023-05-24T06:35:36.240Z,3.88
2023-05-24T06:38:02.986Z,4.30
2023-05-24T06:40:29.728Z,3.25
2023-05-24T06:42:58.702Z,3.55
2023-05-24T06:45:25.551Z,4.75
2023-05-24T06:47:52.425Z,2.95
2023-05-24T06:50:19.573Z,3.88
2023-05-24T06:52:46.364Z,4.35
2023-05-24T06:55:13.134Z,3.70
2023-05-24T06:57:40.166Z,4.47
2023-05-24T07:00:12.103Z,3.20
2023-05-24T07:02:39.520Z,3.22
2023-05-24T07:05:12.219Z,3.63
2023-05-24T07:07:40.201Z,3.58
2023-05-24T07:10:13.834Z,3.95
2023-05-24T07:12:40.950Z,3.92
2023-05-24T07:15:10.020Z,3.28
2023-05-24T07:17:37.228Z,5.30
2023-05-24T07:20:07.602Z,3.30
2023-05-24T07:22:34.577Z,3.42
2023-05-24T07:25:01.780Z,5.13
2023-05-24T07:27:28.801Z,3.40
2023-05-24T07:29:56.199Z,4.38
2023-05-24T07:32:23.615Z,4.25
2023-05-24T07:34:50.620Z,3.92
2023-05-24T07:37:17.781Z,3.97
2023-05-24T07:39:44.869Z,3.75
2023-05-24T07:42:12.108Z,3.35
2023-05-24T07:44:39.317Z,4.15
2023-05-24T07:47:06.530Z,3.60
2023-05-24T07:49:33.441Z,3.70
2023-05-24T07:52:00.380Z,4.32
2023-05-24T07:54:27.098Z,3.05
2023-05-24T07:56:53.905Z,4.28
2023-05-24T07:59:20.798Z,3.28
2023-05-24T08:01:48.222Z,3.70
2023-05-24T08:04:15.019Z,3.33
2023-05-24T08:06:41.934Z,4.13
2023-05-24T08:09:09.240Z,4.35
2023-05-24T08:11:36.179Z,3.78
2023-05-24T08:14:03.806Z,3.95
2023-05-24T08:16:32.085Z,5.38
2023-05-24T08:18:59.617Z,4.90
2023-05-24T08:21:27.904Z,4.55
2023-05-24T08:23:55.030Z,3.83
2023-05-24T08:26:22.267Z,4.70
2023-05-24T08:28:49.042Z,4.55
2023-05-24T08:31:16.660Z,4.82
2023-05-24T08:33:44.259Z,5.10
2023-05-24T08:36:11.047Z,4.72
2023-05-24T08:38:38.268Z,4.78
2023-05-24T08:41:09.537Z,4.80
2023-05-24T08:43:38.096Z,4.97
2023-05-24T08:46:05.978Z,4.78
2023-05-24T08:48:34.088Z,4.00
2023-05-24T08:51:00.986Z,3.85
2023-05-24T08:53:28.159Z,5.10
2023-05-24T08:55:56.232Z,5.28
2023-05-24T08:58:23.339Z,6.03
2023-05-24T09:00:50.114Z,4.88
2023-05-24T09:03:18.765Z,4.82
2023-05-24T09:05:46.298Z,5.88
2023-05-24T09:08:18.268Z,5.60
2023-05-24T09:10:55.087Z,5.75
2023-05-24T09:13:24.991Z,5.65
2023-05-24T09:15:52.131Z,5.72
2023-05-24T09:18:19.471Z,6.35
2023-05-24T09:20:46.577Z,4.90
2023-05-24T09:23:14.764Z,5.53
2023-05-24T09:25:46.226Z,6.20
2023-05-24T09:28:15.170Z,5.80
2023-05-24T09:30:46.354Z,6.03
2023-05-24T09:33:13.694Z,6.38
2023-05-24T09:35:48.245Z,6.78
2023-05-24T09:38:19.108Z,6.28
2023-05-24T09:40:46.931Z,6.18
2023-05-24T09:43:13.836Z,5.82
2023-05-24T09:45:46.907Z,5.80
2023-05-24T09:48:15.351Z,5.63
2023-05-24T09:50:42.590Z,5.28
2023-05-24T09:53:09.999Z,5.93
2023-05-24T09:55:39.131Z,5.07
2023-05-24T09:58:09.022Z,4.32
2023-05-24T10:00:40.329Z,4.95
2023-05-24T10:03:10.844Z,5.22
2023-05-24T10:05:39.893Z,5.07
2023-05-24T10:08:06.973Z,5.18
2023-05-24T10:10:34.193Z,6.60
2023-05-24T10:13:02.330Z,5.68
2023-05-24T10:15:30.333Z,7.07
2023-05-24T10:18:00.671Z,6.18
2023-05-24T10:20:28.684Z,6.75
2023-05-24T10:23:03.605Z,6.05
2023-05-24T10:25:33.603Z,5.85
2023-05-24T10:28:10.260Z,5.50
2023-05-24T10:31:16.161Z,6.28
2023-05-24T10:33:45.406Z,6.35
2023-05-24T10:36:14.205Z,5.05
2023-05-24T10:38:41.256Z,6.35
2023-05-24T10:41:08.963Z,5.18
2023-05-24T10:43:36.707Z,6.15
2023-05-24T10:46:05.616Z,5.72
2023-05-24T10:48:33.758Z,4.97
2023-05-24T10:51:02.504Z,6.13
2023-05-24T10:53:29.384Z,6.30
2023-05-24T10:56:01.249Z,5.22
2023-05-24T10:58:35.467Z,5.97
2023-05-24T11:01:03.129Z,5.20
2023-05-24T11:03:33.752Z,5.82
2023-05-24T11:06:00.699Z,5.38
2023-05-24T11:08:33.559Z,4.93
2023-05-24T11:13:41.070Z,4.65
2023-05-24T11:16:08.113Z,4.60
2023-05-24T11:18:38.742Z,5.25
2023-05-24T11:21:08.876Z,4.95
2023-05-24T11:23:38.340Z,4.40
2023-05-24T11:26:07.413Z,4.30
2023-05-24T11:28:37.757Z,5.28
2023-05-24T11:31:09.937Z,4.50
2023-05-24T11:33:42.740Z,5.40
2023-05-24T11:36:09.955Z,4.95
2023-05-24T11:38:37.625Z,4.68
2023-05-24T11:41:05.427Z,4.95
2023-05-24T11:43:35.355Z,5.78
2023-05-24T11:46:02.781Z,4.75
2023-05-24T11:48:30.721Z,6.03
2023-05-24T11:50:58.102Z,5.32
2023-05-24T11:53:25.041Z,4.70
2023-05-24T11:55:54.530Z,4.65
2023-05-24T11:58:46.367Z,5.32
2023-05-24T12:01:27.456Z,5.30
2023-05-24T12:03:55.386Z,5.03
2023-05-24T12:06:23.113Z,5.65
2023-05-24T12:08:50.087Z,5.95
2023-05-24T12:11:17.580Z,5.35
2023-05-24T12:13:45.129Z,5.10
2023-05-24T12:16:14.178Z,5.50
2023-05-24T12:18:48.502Z,6.72
2023-05-24T12:21:23.029Z,5.47
2023-05-24T12:23:50.011Z,5.38
2023-05-24T12:26:20.961Z,5.40
2023-05-24T12:28:53.936Z,4.60
2023-05-24T12:31:21.429Z,5.88
2023-05-24T12:33:48.792Z,4.50
2023-05-24T12:36:16.267Z,4.90
2023-05-24T12:38:43.052Z,4.95
2023-05-24T12:41:13.928Z,4.70
2023-05-24T12:43:44.711Z,4.65
2023-05-24T12:46:11.637Z,4.20
2023-05-24T12:48:38.657Z,4.60
2023-05-24T12:51:06.420Z,4.70
2023-05-24T12:53:33.241Z,4.43
2023-05-24T12:56:03.776Z,3.45
2023-05-24T12:58:30.904Z,4.10
2023-05-24T13:00:58.014Z,5.13
2023-05-24T13:03:25.191Z,4.65
2023-05-24T13:05:52.133Z,4.28
2023-05-24T13:08:19.094Z,5.20
2023-05-24T13:10:46.056Z,4.75
2023-05-24T13:13:15.089Z,5.40
2023-05-24T13:15:44.695Z,4.28
2023-05-24T13:18:11.697Z,5.10
2023-05-24T13:20:38.856Z,4.25
2023-05-24T13:23:06.208Z,4.38
2023-05-24T13:25:32.954Z,5.20
2023-05-24T13:28:01.782Z,5.20
2023-05-24T13:30:28.654Z,5.10
2023-05-24T13:32:56.919Z,5.22
2023-05-24T13:35:24.041Z,4.72
2023-05-24T13:37:53.064Z,4.82
2023-05-24T13:40:20.826Z,4.75
2023-05-24T13:42:48.063Z,5.57
2023-05-24T13:45:15.481Z,5.78
2023-05-24T13:47:43.340Z,4.95
2023-05-24T13:50:11.520Z,5.15
2023-05-24T13:52:38.670Z,3.95
2023-05-24T13:55:06.218Z,4.25
2023-05-24T13:57:49.744Z,4.25
2023-05-24T14:00:18.806Z,4.22
2023-05-24T14:02:45.618Z,3.72
2023-05-24T14:07:42.573Z,3.47
2023-05-24T14:10:09.827Z,3.75
2023-05-24T14:12:36.662Z,3.45
2023-05-24T14:15:05.097Z,3.45
2023-05-24T14:17:32.058Z,3.95
2023-05-24T14:19:58.837Z,4.40
2023-05-24T14:22:26.203Z,3.15
2023-05-24T14:24:53.600Z,3.50
2023-05-24T14:27:23.232Z,3.97
2023-05-24T14:29:51.637Z,3.90
2023-05-24T14:32:18.385Z,3.13
2023-05-24T14:34:45.538Z,3.75
2023-05-24T14:37:12.278Z,4.93
2023-05-24T14:39:39.078Z,3.85
2023-05-24T14:42:06.337Z,3.78
2023-05-24T14:44:33.096Z,3.20
2023-05-24T14:47:00.972Z,3.15
2023-05-24T14:49:27.757Z,4.40
2023-05-24T14:51:54.759Z,3.33
2023-05-24T14:54:21.887Z,4.57
2023-05-24T14:56:50.321Z,5.53
2023-05-24T14:59:17.165Z,4.30
2023-05-24T15:01:50.052Z,3.50
2023-05-24T15:04:19.002Z,4.40
2023-05-24T15:06:46.380Z,4.15
2023-05-24T15:09:13.624Z,3.88
2023-05-24T15:11:40.530Z,3.58
2023-05-24T15:14:07.421Z,3.42
2023-05-24T15:16:34.536Z,3.40
2023-05-24T15:19:01.460Z,3.92
2023-05-24T15:21:28.183Z,4.05
2023-05-24T15:23:55.113Z,4.22
2023-05-24T15:26:22.806Z,3.85
2023-05-24T15:28:49.743Z,3.42
2023-05-24T15:31:16.829Z,4.15
2023-05-24T15:33:45.124Z,3.97
2023-05-24T15:36:15.584Z,4.20
2023-05-24T15:38:43.104Z,4.03
2023-05-24T15:41:09.917Z,3.15
2023-05-24T15:43:37.709Z,3.47
2023-05-24T15:46:04.807Z,4.07
2023-05-24T15:48:32.891Z,4.10
2023-05-24T15:51:46.354Z,3.90
2023-05-24T15:53:49.958Z,4.28
2023-05-24T15:56:16.934Z,4.65
2023-05-24T15:58:43.789Z,5.07
2023-05-24T16:01:10.803Z,4.00
2023-05-24T16:03:38.415Z,3.83
2023-05-24T16:06:07.068Z,3.78
2023-05-24T16:08:34.112Z,3.92
2023-05-24T16:11:08.659Z,4.35
2023-05-24T16:13:46.389Z,3.50
2023-05-24T16:16:13.214Z,3.50
2023-05-24T16:18:40.003Z,4.20
2023-05-24T16:21:06.898Z,4.00
2023-05-24T16:23:33.718Z,4.05
2023-05-24T16:26:00.789Z,3.05
2023-05-24T16:28:28.112Z,3.88
2023-05-24T16:30:56.435Z,4.20
2023-05-24T16:33:24.851Z,3.25
2023-05-24T16:35:55.953Z,3.67
2023-05-24T16:38:24.072Z,4.30
2023-05-24T16:40:54.174Z,4.15
2023-05-24T16:43:21.682Z,3.50
2023-05-24T16:45:50.977Z,4.10
2023-05-24T16:48:21.659Z,4.00
2023-05-24T16:50:50.471Z,3.70
2023-05-24T16:53:17.310Z,3.55
2023-05-24T16:55:44.436Z,4.90
2023-05-24T16:58:11.294Z,3.88
2023-05-24T17:00:38.057Z,3.75
2023-05-24T17:03:06.635Z,4.60
2023-05-24T17:05:33.537Z,3.70
2023-05-24T17:08:02.912Z,4.32
2023-05-24T17:10:29.702Z,4.07
2023-05-24T17:12:56.469Z,4.93
2023-05-24T17:15:23.218Z,3.75
2023-05-24T17:17:51.661Z,4.97
2023-05-24T17:20:18.620Z,5.13
2023-05-24T17:22:45.390Z,4.28
2023-05-24T17:25:13.548Z,3.58
2023-05-24T17:27:40.316Z,3.70
2023-05-24T17:30:07.677Z,3.95
2023-05-24T17:32:34.504Z,5.20
2023-05-24T17:35:01.267Z,3.83
2023-05-24T17:37:28.058Z,4.13
2023-05-24T17:39:54.787Z,4.25
2023-05-24T17:42:21.817Z,4.15
2023-05-24T17:44:48.574Z,3.65
2023-05-24T17:47:15.336Z,4.55
2023-05-24T17:49:42.081Z,3.78
2023-05-24T17:52:08.808Z,4.47
2023-05-24T17:54:35.570Z,3.88
2023-05-24T17:57:03.072Z,4.47
2023-05-24T17:59:29.957Z,4.05
2023-05-24T18:01:57.080Z,4.65
2023-05-24T18:04:23.820Z,3.78
2023-05-24T18:06:50.620Z,4.43
2023-05-24T18:09:17.415Z,5.28
2023-05-24T18:11:44.316Z,5.35
2023-05-24T18:14:11.335Z,3.97
2023-05-24T18:16:38.215Z,4.20
2023-05-24T18:19:05.055Z,4.70
2023-05-24T18:21:32.580Z,4.80
2023-05-24T18:23:59.370Z,4.65
2023-05-24T18:26:26.377Z,3.60
2023-05-24T18:28:53.121Z,3.58
2023-05-24T18:31:20.499Z,4.03
2023-05-24T18:33:49.748Z,4.40
2023-05-24T18:36:16.636Z,3.58
2023-05-24T18:38:47.465Z,3.38
2023-05-24T18:41:15.515Z,5.53
2023-05-24T18:43:43.193Z,4.03
2023-05-24T18:46:13.607Z,4.75
2023-05-24T18:48:45.266Z,4.63
2023-05-24T18:51:13.614Z,4.18
2023-05-24T18:53:40.644Z,4.60
2023-05-24T18:56:07.456Z,4.45
2023-05-24T18:58:34.272Z,4.80
2023-05-24T19:01:01.258Z,4.03
2023-05-24T19:03:28.380Z,3.85
2023-05-24T19:05:55.194Z,3.90
2023-05-24T19:08:21.958Z,4.85
2023-05-24T19:10:48.792Z,4.03
2023-05-24T19:13:15.836Z,4.70
2023-05-24T19:15:42.881Z,3.92
2023-05-24T19:18:09.878Z,4.93
2023-05-24T19:20:36.835Z,4.50
2023-05-24T19:23:03.667Z,4.28
2023-05-24T19:25:31.380Z,4.90
2023-05-24T19:28:00.505Z,3.95
2023-05-24T19:30:27.859Z,3.83
2023-05-24T19:32:54.786Z,3.33
2023-05-24T19:35:21.698Z,4.38
2023-05-24T19:37:49.587Z,4.55
2023-05-24T19:40:16.546Z,3.78
2023-05-24T19:42:43.433Z,4.10
2023-05-24T19:45:10.666Z,4.20
2023-05-24T19:47:37.486Z,3.85
2023-05-24T19:50:07.141Z,4.13
2023-05-24T19:52:33.890Z,3.90
2023-05-24T19:55:00.710Z,4.10
2023-05-24T19:57:27.587Z,4.68
2023-05-24T19:59:54.359Z,3.90
2023-05-24T20:02:21.221Z,4.03
2023-05-24T20:04:47.936Z,3.90
2023-05-24T20:07:15.258Z,5.25
2023-05-24T20:09:42.097Z,4.68
2023-05-24T20:12:08.963Z,3.83
2023-05-24T20:14:36.072Z,4.45
2023-05-24T20:17:03.077Z,4.38
2023-05-24T20:19:29.822Z,4.70
2023-05-24T20:21:57.304Z,4.55
2023-05-24T20:24:26.987Z,4.75
2023-05-24T20:26:53.768Z,4.43
2023-05-24T20:29:20.491Z,4.50
2023-05-24T20:31:47.479Z,4.22
2023-05-24T20:34:14.855Z,4.22
2023-05-24T20:36:46.397Z,4.15
2023-05-24T20:39:13.335Z,4.03
2023-05-24T20:41:40.099Z,4.30
2023-05-24T20:44:06.887Z,4.47
2023-05-24T20:46:33.976Z,3.88
2023-05-24T20:49:01.211Z,3.60
2023-05-24T20:51:27.981Z,4.05
2023-05-24T20:53:54.888Z,4.15
2023-05-24T20:56:23.297Z,4.15
2023-05-24T20:58:53.117Z,4.18
2023-05-24T21:01:20.957Z,4.68
2023-05-24T21:03:47.891Z,4.28
2023-05-24T21:06:15.177Z,4.00
2023-05-24T21:08:42.929Z,4.78
2023-05-24T21:11:09.823Z,3.47
2023-05-24T21:13:36.612Z,3.70
2023-05-24T21:16:03.674Z,3.88
2023-05-24T21:18:30.599Z,3.70
2023-05-24T21:20:57.358Z,3.28
2023-05-24T21:23:24.080Z,3.80
2023-05-24T21:25:51.039Z,4.47
2023-05-24T21:28:18.306Z,3.05
2023-05-24T21:30:46.356Z,4.07
2023-05-24T21:33:13.227Z,3.58
2023-05-24T21:35:40.019Z,3.55
2023-05-24T21:38:06.982Z,3.85
2023-05-24T21:40:34.292Z,4.15
2023-05-24T21:43:01.150Z,4.32
2023-05-24T21:45:27.895Z,4.30
2023-05-24T21:47:54.751Z,4.88
2023-05-24T21:50:21.564Z,3.90
2023-05-24T21:52:48.403Z,3.85
2023-05-24T21:55:15.230Z,3.53
2023-05-24T21:57:42.015Z,3.42
2023-05-24T22:00:09.394Z,3.08
2023-05-24T22:02:37.097Z,4.55
2023-05-24T22:05:05.376Z,3.67
2023-05-24T22:07:32.259Z,3.67
2023-05-24T22:09:59.477Z,4.38
2023-05-24T22:12:26.477Z,2.80
2023-05-24T22:14:53.392Z,3.22
2023-05-24T22:17:21.973Z,3.17
2023-05-24T22:19:49.079Z,3.55
2023-05-24T22:22:19.802Z,3.70
2023-05-24T22:24:47.347Z,3.08
2023-05-24T22:27:16.342Z,3.17
2023-05-24T22:29:43.737Z,2.72
2023-05-24T22:32:10.882Z,2.63
2023-05-24T22:34:37.752Z,3.35
2023-05-24T22:37:05.050Z,2.83
2023-05-24T22:39:31.824Z,2.65
2023-05-24T22:41:58.865Z,3.08
2023-05-24T22:44:26.441Z,3.42
2023-05-24T22:46:53.944Z,3.53
2023-05-24T22:49:21.034Z,3.22
2023-05-24T22:51:53.275Z,3.75
2023-05-24T22:54:20.082Z,2.38
2023-05-24T22:56:46.891Z,2.95
2023-05-24T22:59:13.721Z,2.33
2023-05-24T23:01:40.614Z,2.88
2023-05-24T23:04:20.479Z,2.50
2023-05-24T23:06:53.403Z,2.88
2023-05-24T23:09:29.391Z,2.90
2023-05-24T23:11:58.896Z,2.60
2023-05-24T23:14:25.834Z,2.70
2023-05-24T23:16:52.688Z,2.22
2023-05-24T23:19:19.569Z,2.65
2023-05-24T23:21:46.555Z,2.30
2023-05-24T23:24:16.716Z,2.28
2023-05-24T23:26:43.963Z,2.90
2023-05-24T23:29:10.959Z,2.50
2023-05-24T23:31:37.967Z,2.65
2023-05-24T23:34:05.762Z,2.45
2023-05-24T23:36:32.651Z,2.50
2023-05-24T23:38:59.520Z,2.03
2023-05-24T23:41:26.669Z,2.95
2023-05-24T23:43:53.558Z,2.10
2023-05-24T23:46:20.603Z,2.55
2023-05-24T23:48:47.437Z,3.08
2023-05-24T23:51:14.306Z,2.47
2023-05-24T23:53:41.072Z,2.45
2023-05-24T23:56:07.868Z,1.95
2023-05-24T23:58:34.671Z,2.28
